x

9431647 - Port Orford, Or (poro3) Weather Station

1:30am - Sat 25th Oct 2014 All times are PDT. -7 hours from GMT.

  • Wind
    32mph, 38mph gusts
  • Sea Temp 60°f
  • Air Temp 58°f
  • Sea Pressure 1001.8mb
  • 9431647 - Port Orford, Or
  • 9431647 - Port Orford, Or

More Historic Weather Station data

Upgrade to MSW Pro to gain access to the past 30 days of data for over 8000 Wavebouys and Weather Stations around the globe.

Join Pro

Comparision Forecast

View Surf forecast
   
Sat 10/25 1:30am 32 38 mph 1001.8mb 60f 58f
1:24am 32 47 mph 1001.5mb 60f 59f
1:18am 43 49 mph 1001.1mb 60f 58f
1:12am 26 36 mph 1001.4mb 60f 63f
1:06am 18 22 mph 1001.4mb 60f 63f
1:00am 17 24 mph 1001.1mb 60f 63f
12:54am 21 38 mph 1000.8mb 60f 64f
12:48am 29 40 mph 1000.8mb 60f 64f
12:42am 21 23 mph 1001.2mb 60f 64f
12:36am 18 22 mph 1001.3mb 60f 64f
12:30am 16 21 mph 1001.3mb 60f 63f
12:24am 18 26 mph 1001.4mb 60f 64f
12:18am 18 22 mph 1001.4mb 60f 64f
12:12am 20 25 mph 1001.5mb 60f 64f
12:06am 22 26 mph 1001.6mb 60f 65f
12:00am 22 30 mph 1001.7mb 60f 64f
Fri 10/24 11:54pm 20 25 mph 1001.8mb 60f 64f
11:48pm 20 26 mph 1002.1mb 60f 64f
11:42pm 21 24 mph 1002.2mb 60f 64f
11:36pm 18 23 mph 1002.4mb 60f 64f
11:30pm 18 22 mph 1002.6mb 60f 64f
11:24pm 17 21 mph 1002.7mb 60f 63f
11:18pm 15 18 mph 1002.7mb 60f 63f
11:12pm 16 20 mph 1002.7mb 60f 63f
11:06pm 17 23 mph 1002.7mb 60f 63f
11:00pm 17 23 mph 1002.7mb 60f 62f
10:54pm 18 21 mph 1002.8mb 60f 63f
10:48pm 18 21 mph 1002.9mb 60f 63f
10:42pm 18 21 mph 1002.9mb 60f 63f
10:36pm 17 22 mph 1003mb 60f 63f
10:30pm 18 23 mph 1003mb 60f 63f
10:24pm 21 25 mph 1002.8mb 60f 64f
10:18pm 23 30 mph 1002.7mb 60f 64f
10:12pm 26 38 mph 1002.8mb 60f 65f
10:06pm 25 37 mph 1002.8mb 60f 65f
10:00pm 31 39 mph 1002.6mb 60f 65f
9:54pm 28 37 mph 1002.9mb 60f 64f
9:48pm 28 38 mph 1003.1mb 60f 64f
9:42pm 28 36 mph 1003.2mb 60f 64f
9:36pm 24 33 mph 1003.3mb 60f 64f
9:30pm 25 38 mph 1003.4mb 60f 64f
9:24pm 29 36 mph 1003.4mb 60f 64f
9:18pm 26 39 mph 1003.5mb 60f 64f
9:12pm 29 38 mph 1003.6mb 60f 64f
9:06pm 28 36 mph 1003.6mb 60f 64f
9:00pm 28 34 mph 1003.6mb 60f 64f
8:54pm 26 34 mph 1003.8mb 60f 64f
8:48pm 25 33 mph 1003.9mb 60f 64f
8:42pm 26 32 mph 1004mb 60f 64f
8:36pm 25 32 mph 1004.1mb 60f 64f
8:30pm 24 33 mph 1004.1mb 60f 64f
8:24pm 25 30 mph 1004.2mb 60f 64f
8:18pm 22 30 mph 1004.4mb - 63f
8:12pm 24 31 mph 1004.4mb - 64f
8:06pm 22 25 mph 1004.5mb - 63f
8:00pm 21 28 mph 1004.5mb 60f 64f
7:54pm 21 28 mph 1004.6mb 60f 64f
7:48pm 22 30 mph 1004.6mb 60f 64f
7:42pm 22 28 mph 1004.5mb 60f 64f
7:36pm 23 30 mph 1004.5mb 60f 65f
7:30pm 20 25 mph 1004.5mb 60f 64f
7:24pm 18 24 mph 1004.5mb 60f 65f
7:18pm 21 25 mph 1004.5mb 60f 65f
7:12pm 17 21 mph 1004.5mb 60f 64f
7:06pm 16 20 mph 1004.5mb 60f 64f
7:00pm 17 20 mph 1004.5mb 60f 64f
6:54pm 18 21 mph 1004.5mb 60f 64f
6:48pm 17 24 mph 1004.5mb 60f 63f
6:42pm 21 25 mph 1004.5mb 60f 64f
6:36pm 21 26 mph 1004.6mb 60f 64f
6:30pm 20 29 mph 1004.7mb 60f 64f
6:24pm 24 32 mph 1004.7mb 60f 65f
6:18pm 23 25 mph 1004.8mb 60f 65f
6:12pm 22 29 mph 1004.8mb 60f 64f
6:06pm 23 30 mph 1004.9mb 60f 64f
6:00pm 23 26 mph 1005mb 60f 64f
5:54pm 20 23 mph 1005.1mb 60f 64f
5:48pm 20 22 mph 1005.3mb 60f 62f
5:42pm 17 21 mph 1005.4mb 60f 62f
5:36pm 18 25 mph 1005.5mb 60f 62f
5:30pm 18 24 mph 1005.5mb 60f 62f
5:24pm 18 24 mph 1005.6mb 60f 62f
5:18pm 20 24 mph 1005.7mb 60f 62f
5:12pm 17 23 mph 1005.8mb 60f 62f
5:06pm 18 23 mph 1005.9mb 60f 62f
5:00pm 20 24 mph 1006mb 60f 62f
4:54pm 21 22 mph 1006mb 60f 62f
4:48pm 21 24 mph 1006.1mb 60f 62f
4:42pm 22 24 mph 1006.2mb 60f 62f
4:36pm 21 23 mph 1006.2mb 60f 62f
4:30pm 21 24 mph 1006.2mb 60f 62f
4:24pm 20 22 mph 1006.2mb 60f 62f
4:18pm 18 21 mph 1006.3mb 60f 62f
4:12pm 18 20 mph 1006.3mb 60f 62f
4:06pm 18 21 mph 1006.4mb 59f 62f
4:00pm 18 21 mph 1006.5mb 59f 62f
3:54pm 18 21 mph 1006.6mb 59f 62f
3:48pm 17 20 mph 1006.6mb 59f 63f
3:42pm 17 20 mph 1006.7mb 59f 62f
3:36pm 18 23 mph 1006.8mb 59f 63f
3:30pm 22 24 mph 1006.8mb 59f 63f
3:24pm 22 24 mph 1006.9mb 59f 63f
3:18pm 21 24 mph 1006.9mb 59f 63f
3:12pm 22 24 mph 1007mb 59f 63f
3:06pm 21 24 mph 1007mb 59f 64f
3:00pm 21 23 mph 1007.1mb 59f 64f
2:54pm 18 23 mph 1007.2mb 59f 63f
2:48pm 18 23 mph 1007.3mb 59f 63f
2:42pm 20 24 mph 1007.3mb 59f 63f
2:36pm 21 24 mph 1007.4mb 59f 63f
2:30pm 20 24 mph 1007.5mb 59f 63f
2:24pm 21 25 mph 1007.5mb 59f 64f
2:18pm 20 25 mph 1007.6mb 59f 63f
2:12pm 22 25 mph 1007.6mb 59f 64f
2:06pm 18 21 mph 1007.7mb 59f 63f
2:00pm 17 21 mph 1007.7mb 59f 62f
1:54pm 14 17 mph 1007.8mb 59f 62f
1:48pm 15 17 mph 1007.9mb 59f 62f
1:42pm 14 17 mph 1008.1mb 59f 61f
1:36pm 13 15 mph 1008.2mb 59f 60f
1:30pm 11 14 mph 1008.4mb 59f 60f
1:24pm 13 17 mph 1008.6mb 59f 60f
1:18pm 15 17 mph 1008.7mb 59f 60f
1:12pm 15 18 mph 1008.8mb 59f 60f
1:06pm 15 18 mph 1008.9mb 59f 60f
1:00pm 18 21 mph 1009.1mb 59f 60f
12:54pm 11 15 mph 1009.3mb 59f 59f
12:48pm 8 10 mph 1009.5mb 59f 57f
12:42pm 6 7 mph 1009.5mb 59f 57f
12:36pm 3 5 mph 1009.5mb 59f 56f
12:30pm 3 6 mph 1009.5mb 59f 56f
12:24pm 5 6 mph 1009.5mb 59f 56f
12:18pm 5 6 mph 1009.6mb 59f 56f
12:12pm 5 6 mph 1009.8mb 59f 56f
12:06pm 5 8 mph 1009.9mb 59f 55f
12:00pm 6 7 mph 1010mb 59f 55f
11:54am 5 7 mph 1010mb 59f 55f
11:48am 5 8 mph 1010mb 59f 55f
11:42am 6 7 mph 1010.2mb 59f 55f
11:36am 6 7 mph 1010.2mb 59f 55f
11:30am 6 7 mph 1010.3mb 59f 55f
11:24am 6 8 mph 1010.4mb 59f 55f
11:18am 6 8 mph 1010.5mb 59f 55f
11:12am 5 7 mph 1010.7mb 59f 55f
11:06am 6 8 mph 1010.6mb 59f 55f
11:00am 8
mph
1010.7mb 59f 55f
10:54am 6 7 mph 1010.7mb 59f 55f
10:48am 6 7 mph 1010.8mb 59f 55f
10:42am 6 7 mph 1011mb 59f 55f
10:36am 6
mph
1011.1mb 59f 56f
10:30am 2 3 mph 1011.2mb 59f 56f
10:24am 3
mph
1011.2mb 59f 56f
10:18am 2 3 mph 1011mb 59f 56f
10:12am 2 3 mph 1010.9mb 59f 56f
10:06am 2 3 mph 1010.9mb 59f 56f
10:00am 2 3 mph 1010.9mb 59f 56f
9:54am 3 5 mph 1010.9mb 59f 56f
9:48am 2 3 mph 1011.1mb 59f 56f
9:42am  -  2 mph 1011.1mb 59f 56f
9:36am 1 2 mph 1011mb 59f 56f
9:30am 2 3 mph 1010.9mb 59f 56f
9:24am 1 3 mph 1011.1mb 59f 56f
9:18am 2 3 mph 1011.1mb 59f 56f
9:12am 2 3 mph 1011.1mb 59f 56f
9:06am 3 5 mph 1011.1mb 59f 56f
9:00am 5 6 mph 1011.3mb 59f 56f
8:54am 5
mph
1011.3mb 59f 55f
8:48am 2 3 mph 1011.4mb 59f 55f
8:42am 2 5 mph 1011.3mb 59f 55f
8:36am 5 7 mph 1011.3mb 59f 55f
8:30am 5 8 mph 1011.3mb 59f 55f
8:24am 7 8 mph 1011.3mb 59f 55f
8:18am 6 7 mph 1011.3mb 59f 56f
8:12am 3 7 mph 1011.3mb 59f 56f
8:06am 6 7 mph 1011.2mb 59f 55f
8:00am 5 7 mph 1011.4mb 59f 56f
7:54am 3 7 mph 1011.5mb 59f 56f
7:48am 3 6 mph 1011.6mb 59f 56f
7:42am 6 8 mph 1011.6mb 59f 56f
7:36am 6 8 mph 1011.7mb 59f 56f
7:30am 6 7 mph 1011.8mb 59f 56f
7:24am 2 5 mph 1012.1mb 59f 56f
7:18am 1 3 mph 1012.2mb 59f 56f
7:12am 2 5 mph 1012.4mb 59f 56f
7:06am 3 6 mph 1012.5mb 59f 56f
7:00am 3 6 mph 1012.7mb 59f 56f
6:54am 3 6 mph 1012.9mb 59f 56f
6:48am 3 5 mph 1013mb 59f 56f
6:42am 3 6 mph 1013.2mb 59f 56f
6:36am 5 6 mph 1013.2mb 59f 56f
6:30am 3 6 mph 1013.4mb 59f 56f
6:24am 5 6 mph 1013.4mb 59f 56f
6:18am 3 6 mph 1013.6mb 59f 56f
6:12am 5 7 mph 1013.7mb 59f 56f
6:06am 3 5 mph 1013.8mb 59f 56f
6:00am 2
mph
1014mb 59f 56f
5:54am 1 2 mph 1014.1mb 59f 56f
5:48am 2 3 mph 1014.1mb 59f 56f
5:42am 2 3 mph 1014.2mb 59f 57f
5:36am 2 3 mph 1014.3mb 59f 57f
5:30am 3 5 mph 1014.2mb 59f 57f
5:24am 3 7 mph 1014.3mb 59f 58f
5:18am 5 6 mph 1014.3mb 59f 58f
5:12am 3 5 mph 1014.1mb 59f 57f
5:06am 1 2 mph 1014.4mb 59f 57f
5:00am 2
mph
1014.4mb 59f 57f
4:54am 2 3 mph 1014.5mb 59f 58f
4:48am 2 6 mph 1014.4mb 59f 58f
4:42am 5 6 mph 1014.5mb 59f 58f
4:36am 5 7 mph 1014.4mb 59f 58f
4:30am 7 10 mph 1014.4mb 59f 59f
4:24am 8 11 mph 1014.6mb 59f 59f
4:18am 8 11 mph 1014.7mb 59f 59f
4:12am 10 14 mph 1014.7mb 59f 59f
4:06am 10 14 mph 1014.7mb 59f 59f
4:00am 10 13 mph 1014.8mb 59f 59f
3:54am 9 13 mph 1015mb 59f 59f
3:48am 11 13 mph 1015.1mb 59f 60f
3:42am 11 13 mph 1015.1mb 59f 60f
3:36am 11 14 mph 1015.2mb 59f 60f
3:30am 10 16 mph 1015.2mb 59f 60f
3:24am 11 13 mph 1015.2mb 59f 60f
3:18am 9 10 mph 1015.2mb 59f 60f
3:12am 7 9 mph 1015.2mb 59f 60f
3:06am 6 8 mph 1015.2mb 59f 59f
3:00am 6 7 mph 1015.3mb 59f 59f
2:54am 7
mph
1015.3mb 59f 59f
2:48am 6 7 mph 1015.4mb 59f 59f
2:42am 6
mph
1015.4mb 59f 59f
2:36am 1 2 mph 1015.5mb 59f 58f
2:30am  -  2 mph 1015.5mb 59f 58f
2:24am 2
mph
1015.5mb 59f 58f
2:18am 2
mph
1015.6mb 59f 58f
2:12am 2
mph
1015.7mb 59f 58f
2:06am  -  1 mph 1015.7mb 59f 58f
2:00am  -  1 mph 1015.8mb 59f 58f
1:54am  -  2 mph 1015.8mb 59f 58f
1:48am 2 3 mph 1015.7mb 59f 58f
1:42am 2
mph
1015.7mb 59f 58f
1:36am 2 3 mph 1015.7mb 59f 58f
1:30am 2
mph
1015.8mb 59f 58f
1:24am 2 3 mph 1015.8mb 59f 58f
1:18am 2 3 mph 1015.9mb 59f 58f
1:12am 1 2 mph 1015.9mb 59f 57f
1:06am 1 2 mph 1015.9mb 59f 57f
1:00am 1 3 mph 1015.9mb 59f 57f
12:54am 2 3 mph 1015.9mb 59f 57f
12:48am 2
mph
1015.9mb 59f 57f
12:42am  -  2 mph 1016mb 59f 57f
12:36am 3 5 mph 1016mb 59f 57f
12:30am 3
mph
1016mb 59f 56f
12:24am 1 2 mph 1016mb 59f 56f
12:18am 1 2 mph 1016mb 59f 56f
12:12am  -  2 mph 1015.8mb 59f 56f
12:06am 1 2 mph 1016mb 59f 56f
12:00am 2 5 mph 1016.1mb 59f 56f
Thu 10/23 11:54pm 5 6 mph 1016mb 59f 56f
11:48pm 2 5 mph 1016.1mb 59f 56f
11:42pm 3 5 mph 1016.2mb 59f 57f
11:36pm 3
mph
1016.3mb 59f 57f
11:30pm 1 2 mph 1016.2mb 59f 57f
11:24pm 2
mph
1016.2mb 59f 58f
11:18pm 1 2 mph 1016.2mb 59f 58f
11:12pm 2 3 mph 1016mb 59f 58f
11:06pm 2 3 mph 1016.1mb 59f 58f
11:00pm 1 5 mph 1016mb 59f 58f
10:54pm 5 7 mph 1015.9mb 59f 59f
10:48pm 6 7 mph 1015.9mb 59f 58f
10:42pm 6 8 mph 1015.8mb 59f 58f
10:36pm 6 8 mph 1015.8mb 59f 58f
10:30pm 7 9 mph 1015.9mb 59f 58f
10:24pm 8 9 mph 1015.9mb 59f 58f
10:18pm 8 10 mph 1015.9mb 59f 58f
10:12pm 7 10 mph 1016mb 59f 58f
10:06pm 7 9 mph 1015.9mb 59f 58f
10:00pm 7 9 mph 1015.9mb 59f 58f
9:54pm 7 9 mph 1015.9mb 60f 58f
9:48pm 7 8 mph 1015.9mb 60f 58f
9:42pm 8 10 mph 1016mb 59f 58f
9:36pm 9 10 mph 1015.9mb 60f 58f
9:30pm 7 13 mph 1015.9mb 60f 58f
9:24pm 11 13 mph 1015.9mb 60f 59f
9:18pm 10 11 mph 1015.8mb 60f 59f
9:12pm 8 10 mph 1015.7mb 60f 59f
9:06pm 7 9 mph 1015.7mb 60f 59f
9:00pm 9 11 mph 1015.7mb 60f 59f
8:54pm 8 11 mph 1015.7mb 60f 59f
8:48pm 9 11 mph 1015.6mb 60f 59f
8:42pm 9 13 mph 1015.5mb 60f 59f
8:36pm 9 14 mph 1015.5mb 60f 59f
8:30pm 11 14 mph 1015.4mb 60f 59f
8:24pm 10 14 mph 1015.4mb 60f 59f
8:18pm 9 13 mph 1015.4mb 60f 59f
8:12pm 10 14 mph 1015.5mb 60f 59f
8:06pm 10 13 mph 1015.5mb 60f 59f
8:00pm 10 13 mph 1015.4mb 60f 59f
7:54pm 9 11 mph 1015.5mb 60f 59f
7:48pm 9 11 mph 1015.5mb 60f 59f
7:42pm 10 13 mph 1015.5mb 60f 59f
7:36pm 10 14 mph 1015.4mb 60f 59f
7:30pm 10 14 mph 1015.5mb 60f 59f
7:24pm 10 13 mph 1015.6mb 60f 59f
7:18pm 9 14 mph 1015.7mb 60f 59f
7:12pm 9 14 mph 1015.6mb 60f 59f
7:06pm 10 11 mph 1015.6mb 60f 59f
7:00pm 9 13 mph 1015.4mb 60f 59f
6:54pm 10 14 mph 1015.5mb 60f 59f
6:48pm 11 14 mph 1015.7mb 60f 59f
6:42pm 13 14 mph 1015.7mb 60f 59f
6:36pm 13 14 mph 1015.6mb 60f 59f
6:30pm 13 16 mph 1015.5mb 60f 59f
6:24pm 14 15 mph 1015.4mb 60f 59f
6:18pm 13 15 mph 1015.4mb 60f 59f
6:12pm 14 17 mph 1015.4mb 60f 59f
6:06pm 13 17 mph 1015.5mb 60f 59f
6:00pm 16 18 mph 1015.6mb 60f 59f
5:54pm 16 18 mph 1015.6mb 60f 59f
5:48pm 17 20 mph 1015.5mb 60f 59f
5:42pm 16 18 mph 1015.5mb 60f 59f
5:36pm 16 18 mph 1015.5mb 60f 59f
5:30pm 15 17 mph 1015.6mb 60f 59f
5:24pm 15 18 mph 1015.4mb 60f 59f
5:18pm 17 21 mph 1015.4mb 60f 59f
5:12pm 17 21 mph 1015.4mb 60f 59f
5:06pm 17 21 mph 1015.3mb 60f 59f
5:00pm 16 20 mph 1015.4mb 60f 59f
4:54pm 16 18 mph 1015.3mb 60f 59f
4:48pm 15 18 mph 1015.5mb 60f 59f
4:42pm 16 20 mph 1015.4mb 60f 59f
4:36pm 16 20 mph 1015.4mb 60f 59f
4:30pm 15 18 mph 1015.3mb 60f 59f
4:24pm 16 18 mph 1015.3mb 60f 59f
4:18pm 15 17 mph 1015.3mb 60f 59f
4:12pm 15 17 mph 1015.3mb 60f 59f
4:06pm 14 17 mph 1015.1mb 60f 59f
4:00pm 14 16 mph 1015mb 60f 59f
3:54pm 13 16 mph 1015mb 60f 59f
3:48pm 15 17 mph 1014.8mb 60f 59f
3:42pm 15 17 mph 1015mb 60f 59f
3:36pm 15 17 mph 1015.1mb 60f 59f
3:30pm 14 17 mph 1015.1mb 60f 59f
3:24pm 13 16 mph 1015.2mb 60f 59f
3:18pm 11 15 mph 1015.2mb 60f 59f
3:12pm 11 16 mph 1015.2mb 60f 59f
3:06pm 13 17 mph 1015.3mb 60f 59f
3:00pm 14 18 mph 1015.5mb 60f 59f
2:54pm 14 18 mph 1015.5mb 60f 59f
2:48pm 15 18 mph 1015.6mb 59f 59f
2:42pm 14 17 mph 1015.6mb 59f 59f
2:36pm 14 17 mph 1015.6mb 59f 59f
2:30pm 14 17 mph 1015.6mb 59f 59f
2:24pm 14 17 mph 1015.6mb 59f 59f
2:18pm 14 17 mph 1015.7mb 59f 59f
2:12pm 15 18 mph 1015.7mb 59f 60f
2:06pm 15 17 mph 1015.7mb 59f 59f
2:00pm 13 17 mph 1015.8mb 59f 59f
1:54pm 14 18 mph 1015.8mb 59f 59f
1:48pm 17 20 mph 1015.8mb 59f 59f
1:42pm 15 17 mph 1015.8mb 59f 59f
1:36pm 15 17 mph 1015.7mb 59f 60f
1:30pm 16 18 mph 1015.6mb 59f 59f
1:24pm 17 21 mph 1015.6mb 59f 59f
1:18pm 17 20 mph 1015.7mb 59f 60f
1:12pm 16 18 mph 1015.7mb 59f 60f
1:06pm 15 18 mph 1015.6mb 59f 60f
1:00pm 14 18 mph 1015.6mb 59f 60f
12:54pm 14 17 mph 1015.6mb 59f 60f
12:48pm 14 15 mph 1015.6mb 59f 60f
12:42pm 13 15 mph 1015.5mb 59f 59f
12:36pm 11 14 mph 1015.6mb 59f 60f
12:30pm 11 13 mph 1015.6mb 59f 60f
12:24pm 10 13 mph 1015.5mb 59f 60f
12:18pm 13 15 mph 1015.4mb 59f 60f
12:12pm 13 14 mph 1015.3mb 59f 60f
12:06pm 10 14 mph 1015.2mb 59f 60f
12:00pm 10 14 mph 1015.1mb 59f 60f
11:54am 13 16 mph 1015mb 59f 60f
11:48am 14 16 mph 1014.9mb 59f 60f
11:42am 11 14 mph 1014.8mb 59f 60f
11:36am 13 14 mph 1014.7mb 59f 59f
11:30am 11 14 mph 1014.6mb 59f 59f
11:24am 11 15 mph 1014.7mb 59f 59f
11:18am 13 14 mph 1014.6mb 59f 59f
11:12am 10 13 mph 1014.6mb 59f 59f
11:06am 10 14 mph 1014.4mb 59f 59f
11:00am 11 14 mph 1014.3mb 59f 59f
10:54am 13 15 mph 1014.3mb 59f 59f
10:48am 15 18 mph 1014.2mb 59f 59f
10:42am 15 17 mph 1014.1mb 59f 60f
10:36am 13 15 mph 1014mb 59f 60f
10:30am 14 15 mph 1013.9mb 59f 60f
10:24am 13 14 mph 1013.8mb 59f 60f
10:18am 13 15 mph 1013.8mb 59f 60f
10:12am 13 15 mph 1013.8mb 59f 60f
10:06am 11 16 mph 1013.8mb 59f 60f
10:00am 11 14 mph 1013.7mb 59f 60f
9:54am 11 14 mph 1013.5mb 59f 60f
9:48am 14 16 mph 1013.4mb 59f 60f
9:42am 11 14 mph 1013.4mb 59f 60f
9:36am 14 15 mph 1013.3mb 59f 60f
9:30am 13 15 mph 1013.4mb 59f 60f
9:24am 13 16 mph 1013.4mb 59f 60f
9:18am 13 16 mph 1013.3mb 59f 60f
9:12am 13 17 mph 1013.3mb 59f 60f
9:06am 14 17 mph 1013.2mb 59f 60f
9:00am 13 20 mph 1013.1mb 59f 59f
8:54am 11 16 mph 1013.1mb 59f 59f
8:48am 10 15 mph 1013mb 59f 59f
8:42am 11 16 mph 1013mb 59f 59f
8:36am 15 18 mph 1012.9mb 59f 59f
8:30am 14 18 mph 1012.7mb 59f 59f
8:24am 15 18 mph 1012.6mb 59f 59f
8:18am 13 18 mph 1012.6mb 59f 59f
8:12am 11 17 mph 1012.6mb 59f 59f
8:06am 13 15 mph 1012.6mb 59f 58f
8:00am 13 16 mph 1012.5mb 59f 58f
7:54am 13 16 mph 1012.4mb 59f 57f
7:48am 13 16 mph 1012.5mb 59f 58f
7:42am 10 16 mph 1012.6mb 59f 58f
7:36am 13 14 mph 1012.6mb 59f 58f
7:30am 10 14 mph 1012.5mb 59f 58f
7:24am 11 15 mph 1012.3mb 59f 58f
7:18am 14 18 mph 1012.3mb 59f 58f
7:12am 17 18 mph 1012.4mb 59f 58f
7:06am 14 20 mph 1012.4mb 59f 58f
7:00am 17 20 mph 1012.3mb 59f 59f
6:54am 17 18 mph 1012mb 59f 58f
6:48am 11 22 mph 1011.8mb 59f 58f
6:42am 21 30 mph 1011.9mb 59f 58f
6:36am 20 23 mph 1011.8mb 59f 58f
6:30am 16 20 mph 1011.8mb 59f 57f
6:24am 17 21 mph 1011.7mb 59f 57f
6:18am 17 24 mph 1011.6mb 59f 57f
6:12am 23 29 mph 1011.5mb 59f 58f
6:06am 18 23 mph 1011.2mb 59f 60f
6:00am 21 24 mph 1011.1mb 60f 60f
5:54am 16 21 mph 1011.1mb 59f 60f
5:48am 18 23 mph 1011mb 59f 60f
5:42am 18 22 mph 1011mb 59f 60f
5:36am 18 22 mph 1011.1mb 59f 60f
5:30am 17 21 mph 1011mb 59f 60f
5:24am 20 23 mph 1011mb 59f 60f
5:18am 20 23 mph 1010.8mb 59f 60f
5:12am 21 23 mph 1010.8mb 59f 60f
5:06am 18 22 mph 1010.7mb 59f 60f
5:00am 21 23 mph 1010.6mb 59f 60f
4:54am 16 21 mph 1010.7mb 59f 60f
4:48am 18 21 mph 1010.6mb 59f 60f
4:42am 20 22 mph 1010.5mb 59f 60f
4:36am 20 23 mph 1010.4mb 59f 60f
4:30am 17 22 mph 1010.4mb 59f 60f
4:24am 18 22 mph 1010.5mb 59f 60f
4:18am 20 23 mph 1010.6mb 59f 60f
4:12am 20 23 mph 1010.5mb 59f 59f
4:06am 18 21 mph 1010.5mb 59f 60f
4:00am 17 21 mph 1010.4mb 60f 60f
3:54am 17 20 mph 1010.4mb 60f 60f
3:48am 20 22 mph 1010.6mb 60f 60f
3:42am 16 21 mph 1010.6mb 60f 60f
3:36am 18 22 mph 1010.6mb 59f 60f
3:30am 16 21 mph 1010.7mb 59f 60f
3:24am 20 24 mph 1010.8mb 59f 60f
3:18am 17 22 mph 1010.8mb 59f 60f
3:12am 18 21 mph 1010.8mb 59f 60f
3:06am 17 20 mph 1010.8mb 60f 60f
3:00am 16 20 mph 1010.8mb 60f 60f
2:54am 18 21 mph 1010.7mb 60f 60f
2:48am 17 21 mph 1010.7mb 60f 60f
2:42am 17 25 mph 1010.7mb 60f 60f
2:36am 20 23 mph 1010.7mb 60f 60f
2:30am 20 24 mph 1010.7mb 59f 60f
2:24am 18 20 mph 1010.5mb 59f 60f
2:18am 17 20 mph 1010.6mb 60f 60f
2:12am 16 20 mph 1010.6mb 59f 60f
2:06am 17 20 mph 1010.5mb 59f 60f
2:00am 17 20 mph 1010.5mb 60f 60f
1:54am 16 18 mph 1010.6mb 59f 60f
1:48am 17 21 mph 1010.6mb 59f 60f
1:42am 16 22 mph 1010.7mb 59f 60f
1:36am 17 23 mph 1010.6mb 59f 60f
1:30am 15 21 mph 1010.6mb 59f 60f
1:24am 14 20 mph 1010.7mb 59f 60f
1:18am 17 20 mph 1010.8mb 59f 60f
1:12am 17 20 mph 1010.8mb 59f 60f
1:06am 16 20 mph 1010.9mb 59f 60f
1:00am 15 18 mph 1010.9mb 59f 60f
12:54am 15 18 mph 1010.9mb 59f 60f
12:48am 15 18 mph 1010.9mb 59f 60f
12:42am 15 21 mph 1010.8mb 59f 60f
12:36am 17 21 mph 1010.8mb 59f 60f
12:30am 17 20 mph 1010.8mb 59f 60f
12:24am 17 21 mph 1010.7mb 59f 60f
12:18am 17 18 mph 1010.7mb 60f 60f
12:12am 11 15 mph 1010.8mb 59f 60f
12:06am 13 15 mph 1010.7mb 59f 60f
12:00am 14 15 mph 1010.8mb 59f 60f
Wed 10/22 11:54pm 13 16 mph 1010.9mb 59f 60f
11:48pm 16 17 mph 1010.9mb 59f 60f
11:42pm 14 16 mph 1010.9mb 59f 60f
11:36pm 13 15 mph 1011mb 59f 60f
11:30pm 13 16 mph 1010.8mb 59f 59f
11:24pm 14 17 mph 1010.7mb 59f 59f
11:18pm 15 17 mph 1010.6mb 59f 59f
11:12pm 15 18 mph 1010.6mb 59f 59f
11:06pm 15 17 mph 1010.5mb 59f 58f
11:00pm 16 18 mph 1010.6mb 60f 58f
10:54pm 15 20 mph 1010.4mb 59f 59f
10:48pm 16 20 mph 1010.3mb 60f 59f
10:42pm 15 17 mph 1010.1mb 59f 59f
10:36pm 16 20 mph 1010.1mb 59f 59f
10:30pm 16 21 mph 1010mb 59f 59f
10:24pm 18 21 mph 1010.1mb 59f 59f
10:18pm 16 20 mph 1010mb 59f 59f
10:12pm 15 20 mph 1010.1mb 59f 59f
10:06pm 16 21 mph 1010.3mb 59f 59f
10:00pm 17 23 mph 1010.1mb 59f 59f
9:54pm 18 23 mph 1010.1mb 60f 59f
9:48pm 21 25 mph 1010mb 60f 59f
9:42pm 20 24 mph 1009.8mb 59f 60f
9:06pm 23 28 mph 1009.8mb 59f 60f
9:00pm 21 23 mph 1009.8mb 59f 60f
8:54pm 20 22 mph 1009.6mb 59f 60f
8:48pm 20 23 mph 1009.6mb 59f 60f
8:42pm 22 25 mph 1009.7mb 59f 60f
8:36pm 21 24 mph 1009.7mb 59f 60f
8:30pm 21 25 mph 1009.7mb 59f 60f
8:24pm 20 29 mph 1009.7mb 59f 60f
8:18pm 24 29 mph 1009.8mb 59f 60f
8:12pm 26 32 mph 1009.8mb 59f 60f
8:06pm 26 32 mph 1009.7mb 59f 60f
8:00pm 25 33 mph 1009.9mb 59f 60f
7:54pm 28 33 mph 1009.8mb 59f 60f
7:48pm 25 31 mph 1009.7mb 59f 60f
7:42pm 26 32 mph 1009.7mb 59f 60f
7:36pm 25 34 mph 1009.7mb 59f 60f
7:30pm 28 38 mph 1009.6mb 59f 60f
7:24pm 30 39 mph 1009.5mb 59f 60f
7:18pm 31 37 mph 1009.5mb 59f 60f
7:12pm 30 37 mph 1009.6mb 59f 60f
7:06pm 30 36 mph 1009.6mb 59f 59f
7:00pm 31 36 mph 1009.6mb 59f 60f
6:54pm 29 37 mph 1009.7mb 59f 60f
6:48pm 28 34 mph 1009.6mb 59f 60f
6:42pm 26 33 mph 1009.6mb 59f 59f
6:36pm 24 34 mph 1009.7mb 59f 59f
6:30pm 26 40 mph 1009.6mb 59f 59f
6:24pm 32 44 mph 1009.6mb 59f 59f
6:18pm 30 38 mph 1009.6mb 59f 59f
6:12pm 32 40 mph 1009.3mb 59f 60f
6:06pm 37 40 mph 1009.1mb 59f 60f
6:00pm 37 43 mph 1009.2mb 59f 60f
5:54pm 34 47 mph 1009mb 59f 60f
5:48pm 39 47 mph 1008.7mb 59f 60f
5:42pm 41 48 mph 1008.7mb 59f 60f
5:36pm 39 52 mph 1008.5mb 59f 60f
5:30pm 46 57 mph 1008.2mb 59f 60f
5:24pm 43 54 mph 1008.1mb 59f 60f
5:18pm 43 53 mph 1008.1mb 59f 60f
5:12pm 38 53 mph 1008.1mb 59f 60f
5:06pm 38 51 mph 1008.3mb 59f 60f
5:00pm 37 49 mph 1008.2mb 59f 60f
4:54pm 36 48 mph 1008.4mb 59f 60f
4:48pm 36 44 mph 1008.6mb 59f 60f
4:42pm 30 46 mph 1008.8mb 59f 59f
4:36pm 31 48 mph 1008.9mb 59f 59f
4:30pm 34 47 mph 1009mb 59f 60f
4:24pm 36 46 mph 1009.1mb 59f 60f
4:18pm 34 51 mph 1009.1mb 59f 60f
4:12pm 37 47 mph 1009.1mb 59f 60f
4:06pm 36 47 mph 1009.1mb 59f 60f
4:00pm 36 43 mph 1009.1mb 59f 60f
3:54pm 34 48 mph 1009.2mb 59f 60f
3:48pm 36 48 mph 1009.2mb 59f 59f
3:42pm 33 46 mph 1009.4mb 59f 60f
3:36pm 36 44 mph 1009.4mb 59f 60f
3:30pm 39 49 mph 1009.4mb 59f 60f
3:24pm 38 49 mph 1009.3mb 59f 60f
3:18pm 38 48 mph 1009mb 59f 60f
3:12pm 37 47 mph 1009mb 59f 60f
3:06pm 39 51 mph 1009mb 59f 60f
3:00pm 40 49 mph 1009mb 59f 60f
2:54pm 36 47 mph 1009.1mb 59f 60f
2:48pm 39 47 mph 1009mb 59f 60f
2:42pm 40 46 mph 1009.1mb 59f 60f
2:36pm 38 47 mph 1009.2mb 59f 59f
2:30pm 38 49 mph 1009.3mb 59f 59f
2:24pm 40 48 mph 1009.3mb 59f 60f
2:18pm 40 49 mph 1009.3mb 59f 61f
2:12pm 37 51 mph 1009mb 59f 61f
2:06pm 34 44 mph 1008.9mb 59f 61f
2:00pm 34 44 mph 1009.1mb 59f 60f
1:54pm 34 44 mph 1009.2mb 59f 59f
1:48pm 37 47 mph 1009.1mb 59f 60f
1:42pm 33 43 mph 1009.3mb 59f 59f
1:36pm 36 46 mph 1009.5mb 59f 59f
1:30pm 39 47 mph 1009.4mb 59f 60f
1:24pm 40 49 mph 1009.5mb 59f 60f
1:18pm 43 52 mph 1009.5mb 59f 60f
1:12pm 38 48 mph 1009.6mb 59f 60f
1:06pm 38 48 mph 1009.7mb 59f 60f
1:00pm 37 49 mph 1009.8mb 59f 60f
12:54pm 39 47 mph 1009.9mb 59f 59f
12:48pm 32 41 mph 1010.1mb 59f 59f
12:42pm 39 44 mph 1010.2mb 59f 60f
12:36pm 34 45 mph 1010.3mb 59f 60f
12:30pm 37 43 mph 1010.2mb 59f 60f
12:24pm 37 45 mph 1010.1mb 59f 61f
12:18pm 38 45 mph 1010.1mb 59f 61f
12:12pm 37 47 mph 1010.2mb 59f 61f
12:06pm 37 46 mph 1010.4mb 59f 60f
12:00pm 40 51 mph 1010.2mb 59f 61f
11:54am 36 51 mph 1010.4mb 59f 61f
11:48am 41 49 mph 1010.3mb 59f 61f
11:42am 40 51 mph 1010.4mb 59f 61f
11:36am 39 49 mph 1010.4mb 59f 61f
11:30am 39 48 mph 1010.4mb 59f 61f
11:24am 38 51 mph 1010.3mb 59f 62f
11:18am 37 43 mph 1010.5mb 59f 61f
11:12am 34 46 mph 1010.6mb 59f 61f
11:06am 39 46 mph 1010.5mb 59f 61f
11:00am 36 44 mph 1010.6mb 59f 61f
10:54am 36 45 mph 1010.7mb 59f 61f
10:48am 37 44 mph 1010.7mb 59f 61f
10:42am 32 45 mph 1010.8mb 59f 61f
10:36am 38 46 mph 1010.8mb 59f 61f
10:30am 37 47 mph 1011mb 59f 60f
10:24am 41 49 mph 1010.9mb 59f 61f
10:18am 36 41 mph 1011mb 59f 61f
10:12am 33 39 mph 1011.1mb 59f 61f
10:06am 31 43 mph 1010.9mb 59f 60f
10:00am 33 44 mph 1011.1mb 59f 60f
9:54am 39 47 mph 1011.1mb 59f 60f
9:48am 37 46 mph 1011mb 59f 60f
9:42am 33 41 mph 1011.2mb 59f 60f
9:36am 34 44 mph 1011.3mb 59f 60f
9:30am 32 44 mph 1011.3mb 59f 59f
9:24am 34 41 mph 1011.3mb 59f 59f
9:18am 38 46 mph 1011.2mb 59f 59f
9:12am 34 40 mph 1011.4mb 59f 59f
9:06am 34 41 mph 1011.4mb 59f 59f
9:00am 32 39 mph 1011.5mb 59f 59f
8:54am 31 39 mph 1011.4mb 59f 59f
8:48am 34 41 mph 1011.4mb 59f 60f
8:42am 33 40 mph 1011.4mb 59f 60f
8:36am 34 38 mph 1011.5mb 59f 60f
8:30am 30 39 mph 1011.5mb 59f 59f
8:24am 32 39 mph 1011.4mb 59f 59f
8:18am 36 40 mph 1011.4mb 59f 59f
8:12am 32 40 mph 1011.4mb 59f 59f
8:06am 31 41 mph 1011.5mb 59f 59f
8:00am 30 40 mph 1011.5mb 59f 59f
7:54am 34 41 mph 1011.5mb 59f 59f
7:48am 30 40 mph 1011.6mb 59f 59f
7:42am 33 40 mph 1011.5mb 59f 59f
7:36am 31 40 mph 1011.6mb 59f 59f
7:30am 32 41 mph 1011.6mb 59f 59f
7:24am 34 45 mph 1011.6mb 59f 59f
7:18am 33 41 mph 1011.7mb 59f 60f
7:12am 32 40 mph 1011.7mb 59f 60f
7:06am 28 37 mph 1011.7mb 58f 60f
7:00am 28 37 mph 1011.7mb 59f 60f
6:54am 24 37 mph 1011.7mb 58f 60f
6:48am 28 36 mph 1011.7mb 58f 59f
6:42am 24 32 mph 1011.7mb 58f 59f
6:36am 24 29 mph 1011.8mb 58f 59f
6:30am 25 32 mph 1011.8mb 58f 59f
6:24am 25 29 mph 1011.7mb 58f 59f
6:18am 23 29 mph 1011.7mb 58f 59f
6:12am 26 37 mph 1011.7mb 58f 59f
6:06am 30 39 mph 1011.7mb 58f 59f
6:00am 37 40 mph 1011.7mb 58f 59f
5:54am 30 44 mph 1011.7mb 58f 59f
5:48am 33 43 mph 1011.8mb 58f 59f
5:42am 33 45 mph 1011.8mb 58f 60f
5:36am 30 41 mph 1011.8mb 58f 59f
5:30am 32 43 mph 1011.9mb 58f 59f
5:24am 31 41 mph 1012mb 58f 59f
5:18am 34 41 mph 1012mb 58f 59f
5:12am 32 39 mph 1012mb 58f 59f
5:06am 32 44 mph 1011.9mb 58f 59f
5:00am 38 47 mph 1011.8mb 58f 60f
4:54am 30 38 mph 1011.7mb 58f 61f
4:48am 32 44 mph 1011.8mb 58f 61f
4:42am 34 41 mph 1011.8mb 58f 61f
4:36am 32 43 mph 1011.8mb 58f 61f
4:30am 32 43 mph 1011.8mb 58f 61f
4:24am 34 44 mph 1011.7mb 58f 61f
4:18am 36 43 mph 1011.8mb 58f 61f
4:12am 36 41 mph 1011.8mb 58f 60f
4:06am 34 45 mph 1011.9mb 58f 61f
4:00am 32 48 mph 1011.9mb 58f 61f
3:54am 34 45 mph 1011.8mb 58f 61f
3:48am 34 45 mph 1011.8mb 58f 61f
3:42am 32 43 mph 1011.9mb 58f 60f
3:36am 34 43 mph 1011.9mb 58f 61f
3:30am 32 39 mph 1012.1mb 58f 61f
3:24am 32 41 mph 1012.1mb 58f 60f
3:18am 29 41 mph 1012.2mb 58f 60f
3:12am 29 36 mph 1012.4mb 58f 60f
3:06am 29 37 mph 1012.5mb 58f 60f
3:00am 29 36 mph 1012.6mb 58f 59f
2:54am 28 34 mph 1012.7mb 58f 59f
2:48am 24 29 mph 1012.7mb 58f 58f
2:42am 22 30 mph 1012.7mb 58f 58f
2:36am 23 29 mph 1012.8mb 58f 58f
2:30am 22 29 mph 1012.7mb 58f 57f
2:24am 23 29 mph 1012.7mb 58f 57f
2:18am 24 29 mph 1012.8mb 58f 57f
2:12am 20 26 mph 1012.9mb 58f 57f
2:06am 21 26 mph 1012.9mb 58f 57f
2:00am 24 28 mph 1013mb 58f 57f
1:54am 22 29 mph 1013.2mb 58f 58f
1:48am 24 28 mph 1013.1mb 58f 58f
1:42am 24 29 mph 1013.2mb 58f 58f
1:36am 25 30 mph 1013.1mb 58f 58f
1:30am 22 25 mph 1013.1mb 58f 58f
1:24am 20 29 mph 1013mb 58f 58f
1:18am 21 26 mph 1012.9mb 58f 57f
1:12am 22 30 mph 1013mb 58f 57f
1:06am 23 28 mph 1012.9mb 58f 56f
1:00am 23 29 mph 1013mb 58f 58f
12:54am 21 28 mph 1013.1mb 58f 58f
12:48am 18 25 mph 1013.2mb 58f 57f
12:42am 22 30 mph 1013.3mb 58f 57f
12:36am 25 30 mph 1013.3mb 58f 56f
12:30am 24 29 mph 1013.3mb 58f 58f
12:24am 24 29 mph 1013.3mb 58f 58f
12:18am 25 29 mph 1013.4mb 58f 58f
12:12am 26 31 mph 1013.4mb 58f 58f
12:06am 26 32 mph 1013.4mb 58f 59f
12:00am 25 29 mph 1013.4mb 58f 59f
Tue 10/21 11:54pm 24 34 mph 1013.4mb 58f 58f
11:48pm 26 31 mph 1013.4mb 58f 59f
11:42pm 26 31 mph 1013.5mb 58f 59f
11:36pm 26 33 mph 1013.4mb 58f 59f
11:30pm 26 36 mph 1013.4mb 58f 60f
11:24pm 29 37 mph 1013.4mb 58f 60f
11:18pm 29 37 mph 1013.3mb 58f 60f
11:12pm 29 33 mph 1013.4mb 58f 60f
11:06pm 29 33 mph 1013.4mb 58f 60f
11:00pm 29 34 mph 1013.5mb 58f 59f
10:54pm 28 32 mph 1013.4mb 58f 59f
10:48pm 29 34 mph 1013.6mb 58f 59f
10:42pm 30 33 mph 1013.6mb 58f 58f
10:36pm 29 33 mph 1013.5mb 58f 59f
10:30pm 24 31 mph 1013.5mb 58f 59f
10:24pm 25 29 mph 1013.4mb 58f 59f
10:18pm 28 32 mph 1013.3mb 58f 59f
10:12pm 28 32 mph 1013.4mb 58f 59f
10:06pm 28 33 mph 1013.4mb 58f 59f
10:00pm 26 32 mph 1013.6mb 58f 59f
9:54pm 31 37 mph 1013.6mb 58f 59f
9:48pm 25 32 mph 1013.4mb 58f 60f
9:42pm 29 36 mph 1013.3mb 58f 60f
9:36pm 30 34 mph 1013.3mb 58f 60f
9:30pm 28 33 mph 1013.3mb 58f 60f
9:24pm 29 33 mph 1013.3mb 58f 60f
9:18pm 28 33 mph 1013.5mb 58f 59f
9:12pm 28 36 mph 1013.5mb 58f 59f
9:06pm 24 33 mph 1013.5mb 58f 59f
9:00pm 26 33 mph 1013.5mb 58f 59f
8:54pm 29 34 mph 1013.6mb 58f 59f
8:48pm 28 31 mph 1013.6mb 58f 59f
8:42pm 29 36 mph 1013.6mb 58f 59f
8:36pm 24 32 mph 1013.8mb 58f 59f
8:30pm 24 32 mph 1013.7mb 58f 59f
8:24pm 26 33 mph 1013.9mb 58f 59f
8:18pm 26 32 mph 1013.9mb 58f 59f
8:12pm 28 32 mph 1014mb 58f 59f
8:06pm 26 32 mph 1014mb 58f 59f
8:00pm 24 30 mph 1014.2mb 58f 59f
7:54pm 26 31 mph 1014.2mb 58f 59f
7:48pm 25 32 mph 1014.2mb 58f 59f
7:42pm 25 30 mph 1014.3mb 58f 59f
7:36pm 25 29 mph 1014.3mb 58f 59f
7:30pm 25 30 mph 1014.3mb 58f 59f
7:24pm 25 31 mph 1014.4mb 58f 59f
7:18pm 24 29 mph 1014.4mb 58f 59f
7:12pm 26 30 mph 1014.4mb 58f 59f
7:06pm 26 31 mph 1014.5mb 58f 59f
7:00pm 28 32 mph 1014.6mb 58f 60f
6:54pm 28 33 mph 1014.7mb 58f 60f
6:48pm 28 33 mph 1014.7mb 58f 60f
6:42pm 26 33 mph 1014.8mb 58f 60f
6:36pm 25 32 mph 1014.9mb 58f 60f
6:30pm 25 33 mph 1014.8mb 58f 59f
6:24pm 24 32 mph 1014.9mb 58f 60f
6:18pm 25 33 mph 1015mb 58f 60f
6:12pm 23 33 mph 1015.1mb 58f 59f
6:06pm 26 33 mph 1015.1mb 58f 59f
6:00pm 26 33 mph 1015.2mb 58f 59f
5:54pm 28 34 mph 1015.3mb 58f 60f
5:48pm 25 31 mph 1015.3mb 58f 60f
5:42pm 25 32 mph 1015.4mb 58f 60f
5:36pm 26 32 mph 1015.4mb 58f 60f
5:30pm 26 31 mph 1015.4mb 58f 60f
5:24pm 26 31 mph 1015.5mb 58f 60f
5:18pm 25 30 mph 1015.5mb 58f 60f
5:12pm 25 30 mph 1015.5mb 58f 60f
5:06pm 25 30 mph 1015.6mb 58f 60f
5:00pm 24 30 mph 1015.6mb 58f 60f
4:54pm 24 31 mph 1015.6mb 58f 60f
4:48pm 25 33 mph 1015.7mb 58f 60f
4:42pm 28 33 mph 1015.7mb 58f 60f
4:36pm 25 33 mph 1015.8mb 59f 60f
4:30pm 26 34 mph 1015.9mb 59f 60f
4:24pm 25 34 mph 1016mb 59f 60f
4:18pm 25 36 mph 1016.1mb 59f 60f
4:12pm 28 37 mph 1016.1mb 58f 60f
4:06pm 28 36 mph 1016.1mb 58f 60f
4:00pm 29 33 mph 1016.2mb 58f 60f
3:54pm 28 33 mph 1016.3mb 58f 60f
3:48pm 26 33 mph 1016.3mb 58f 60f
3:42pm 25 32 mph 1016.3mb 58f 60f
3:36pm 24 32 mph 1016.2mb 58f 60f
3:30pm 26 31 mph 1016.2mb 58f 60f
3:24pm 25 33 mph 1016.2mb 58f 60f
3:18pm 28 34 mph 1016.3mb 58f 60f
3:12pm 26 33 mph 1016.4mb 58f 60f
3:06pm 28 36 mph 1016.4mb 58f 60f
3:00pm 25 34 mph 1016.5mb 58f 60f
2:54pm 26 34 mph 1016.5mb 58f 60f
2:48pm 29 34 mph 1016.5mb 58f 60f
2:42pm 25 31 mph 1016.5mb 58f 60f
2:36pm 25 32 mph 1016.6mb 58f 60f
2:30pm 25 30 mph 1016.5mb 58f 60f
2:24pm 22 33 mph 1016.7mb 58f 60f
2:18pm 25 31 mph 1016.7mb 58f 60f
2:12pm 24 33 mph 1016.8mb 58f 60f
2:06pm 25 31 mph 1016.8mb 58f 60f
2:00pm 23 31 mph 1016.9mb 58f 60f
1:54pm 26 31 mph 1016.8mb 58f 60f
1:48pm 24 31 mph 1016.9mb 58f 60f
1:42pm 28 32 mph 1017mb 58f 60f
1:36pm 26 32 mph 1017.2mb 58f 60f
1:30pm 25 33 mph 1017.2mb 58f 60f
1:24pm 25 31 mph 1017.3mb 58f 60f
1:18pm 25 32 mph 1017.5mb 58f 60f
1:12pm 23 31 mph 1017.5mb 58f 60f
1:06pm 26 32 mph 1017.7mb 58f 60f
1:00pm 25 31 mph 1017.6mb 58f 60f
12:54pm 26 32 mph 1017.7mb 58f 60f
12:48pm 29 33 mph 1017.7mb 58f 59f
12:42pm 29 33 mph 1017.7mb 58f 59f
12:36pm 28 32 mph 1017.9mb 58f 59f
12:30pm 25 32 mph 1017.9mb 58f -
12:24pm 25 32 mph 1018mb 58f -
12:18pm 30 33 mph 1017.9mb 58f 59f
12:12pm 28 33 mph 1017.9mb 58f 59f
12:06pm 26 31 mph 1017.9mb 58f 59f
12:00pm 26 31 mph 1017.9mb 58f 59f
11:54am 26 32 mph 1017.9mb 58f 59f
11:48am 28 32 mph 1017.9mb 58f 59f
11:42am 29 34 mph 1018mb 58f 59f
11:36am 25 31 mph 1018mb 58f 59f
11:30am 28 32 mph 1017.9mb 58f 59f
11:24am 26 30 mph 1017.9mb 58f 59f
11:18am 26 30 mph 1018mb 58f 59f
11:12am 24 29 mph 1018mb 58f 59f
11:06am 24 28 mph 1018mb 58f 59f
11:00am 23 26 mph 1018mb 58f 59f
10:54am 20 23 mph 1017.9mb 58f 59f
10:48am 20 26 mph 1017.9mb 58f 59f
10:42am 25 30 mph 1017.9mb 58f 59f
10:36am 25 30 mph 1017.9mb 58f 59f
10:30am 18 26 mph - 58f -
10:24am 26 29 mph - 58f -
10:18am 25 29 mph 1017.9mb 58f 59f
10:12am 25 30 mph 1017.9mb 58f 59f
10:06am 23 30 mph 1018mb 58f 59f
10:00am 25 31 mph 1018mb 58f 59f
9:54am 26 31 mph 1017.9mb 58f 58f
9:48am 26 31 mph 1017.9mb 58f 58f
9:42am 28 32 mph 1017.9mb 58f 59f
9:36am 25 32 mph 1017.8mb 58f 58f
9:30am 25 32 mph 1017.8mb 58f 58f
9:24am 24 30 mph 1017.8mb 58f 58f
9:18am 22 24 mph 1018mb 58f 58f
9:12am 23 28 mph 1017.8mb 58f 58f